Time;durP1;ratioP1;P1;durP2;ratioP2;P2;SDS_P1;SDS_P2;PMS_P1;PMS_P2;Temp;Humidity;BMP_temperature;BMP_pressure;BME280_temperature;BME280_humidity;BME280_pressure;Samples;Min_cycle;Max_cycle;Signal;HPM_P1;HPM_P2
2020/12/11 00:01:37;;;;;;;10.75;9.70;;;6.50;99.90;;;;;;4994346;28;20218;-30
2020/12/11 00:04:08;;;;;;;11.98;10.85;;;6.60;99.90;;;;;;4993416;28;20195;-29
2020/12/11 00:06:38;;;;;;;12.63;11.43;;;6.70;99.90;;;;;;4988312;28;20272;-29
2020/12/11 00:09:09;;;;;;;13.80;12.40;;;6.60;99.90;;;;;;4997085;28;20196;-30
2020/12/11 00:11:39;;;;;;;11.68;10.65;;;6.70;99.90;;;;;;5004029;28;20614;-30
2020/12/11 00:14:09;;;;;;;15.82;14.25;;;6.70;99.90;;;;;;4998646;28;20199;-30
2020/12/11 00:16:39;;;;;;;12.63;11.32;;;6.70;99.90;;;;;;5005879;28;20214;-30
2020/12/11 00:19:10;;;;;;;15.13;13.65;;;6.70;99.90;;;;;;5012560;28;20534;-30
2020/12/11 00:21:41;;;;;;;10.75;9.68;;;6.70;99.90;;;;;;5000269;28;20298;-30
2020/12/11 00:24:12;;;;;;;13.85;12.60;;;6.80;99.90;;;;;;5008871;28;20188;-30
2020/12/11 00:26:42;;;;;;;11.60;10.50;;;6.80;99.90;;;;;;4994504;28;20223;-30
2020/12/11 00:29:12;;;;;;;13.45;12.25;;;6.90;99.90;;;;;;4995439;28;20199;-30
2020/12/11 00:31:42;;;;;;;11.25;10.25;;;6.80;99.90;;;;;;4991112;28;20744;-30
2020/12/11 00:34:14;;;;;;;12.38;11.18;;;6.70;99.90;;;;;;4998771;28;20643;-30
2020/12/11 00:36:44;;;;;;;11.32;10.32;;;6.80;99.90;;;;;;5010306;28;20214;-30
2020/12/11 00:39:14;;;;;;;20.88;13.40;;;6.80;99.90;;;;;;5000601;28;20215;-30
2020/12/11 00:41:44;;;;;;;12.70;11.40;;;6.70;99.90;;;;;;4993159;28;20195;-30
2020/12/11 00:44:14;;;;;;;15.38;13.77;;;6.80;99.90;;;;;;4997769;28;20198;-29
2020/12/11 00:46:44;;;;;;;13.85;12.55;;;6.80;99.90;;;;;;4998092;28;20266;-29
2020/12/11 00:49:15;;;;;;;12.50;11.40;;;6.80;99.90;;;;;;4993495;28;20188;-30
2020/12/11 00:51:45;;;;;;;12.35;11.13;;;6.80;99.90;;;;;;5003388;28;20250;-29
2020/12/11 00:54:15;;;;;;;12.07;10.93;;;6.70;99.90;;;;;;5002848;28;20196;-29
2020/12/11 00:56:45;;;;;;;11.85;10.73;;;6.80;99.90;;;;;;5002778;28;20287;-28
2020/12/11 00:59:15;;;;;;;11.73;10.70;;;6.80;99.90;;;;;;5000193;28;20207;-29
2020/12/11 01:01:45;;;;;;;11.70;10.57;;;6.80;99.90;;;;;;4995962;28;20196;-29
2020/12/11 01:04:17;;;;;;;12.20;11.10;;;6.80;99.90;;;;;;4992283;28;20214;-29
2020/12/11 01:06:47;;;;;;;12.05;10.88;;;6.90;99.90;;;;;;4985355;28;20203;-29
2020/12/11 01:09:17;;;;;;;11.40;10.30;;;6.80;99.90;;;;;;4995464;28;20208;-29
2020/12/11 01:11:47;;;;;;;12.18;10.88;;;6.80;99.90;;;;;;4991404;28;20203;-29
2020/12/11 01:14:17;;;;;;;13.13;11.82;;;6.90;99.90;;;;;;4990659;28;20212;-29
2020/12/11 01:16:47;;;;;;;13.30;12.00;;;6.90;99.90;;;;;;4999145;28;20581;-30
2020/12/11 01:19:18;;;;;;;14.15;12.70;;;6.90;99.90;;;;;;5003159;28;20647;-29
2020/12/11 01:21:49;;;;;;;14.13;12.60;;;7.00;99.90;;;;;;4989445;28;20311;-29
2020/12/11 01:24:19;;;;;;;12.90;11.60;;;7.00;99.90;;;;;;4991853;28;20278;-29
2020/12/11 01:26:52;;;;;;;14.38;12.05;;;7.00;99.90;;;;;;4991587;28;20224;-29
2020/12/11 01:29:23;;;;;;;12.80;11.60;;;7.10;99.90;;;;;;4998104;28;20705;-29
2020/12/11 01:31:56;;;;;;;14.73;13.07;;;7.00;99.90;;;;;;4993132;28;20658;-29
2020/12/11 01:34:28;;;;;;;12.07;10.98;;;7.00;99.90;;;;;;4999527;28;20867;-29
2020/12/11 01:37:04;;;;;;;14.82;13.40;;;7.00;99.90;;;;;;4993829;28;20212;-28
2020/12/11 01:39:34;;;;;;;12.60;11.50;;;7.00;99.90;;;;;;4980627;28;20234;-28
2020/12/11 01:42:10;;;;;;;14.90;13.45;;;7.00;99.90;;;;;;5003270;28;20203;-28
2020/12/11 01:44:49;;;;;;;14.52;13.13;;;7.00;99.90;;;;;;5004632;28;20241;-28
2020/12/11 01:47:19;;;;;;;12.65;11.55;;;6.90;99.90;;;;;;4997449;28;20242;-28
2020/12/11 01:49:52;;;;;;;13.00;11.77;;;7.00;99.90;;;;;;4972424;28;20192;-29
2020/12/11 01:52:24;;;;;;;13.68;12.32;;;7.10;99.90;;;;;;4993343;28;20187;-29
2020/12/11 01:54:54;;;;;;;15.55;14.15;;;7.00;99.90;;;;;;5010305;28;20282;-29
2020/12/11 01:57:30;;;;;;;19.83;15.60;;;7.10;99.90;;;;;;5010462;28;20572;-29
2020/12/11 02:00:04;;;;;;;18.00;16.40;;;7.10;99.90;;;;;;5010774;28;20870;-30
2020/12/11 02:02:37;;;;;;;17.65;15.80;;;7.10;99.90;;;;;;5009168;28;20196;-29
2020/12/11 02:05:09;;;;;;;14.93;13.52;;;7.20;99.90;;;;;;4998447;28;20600;-29
2020/12/11 02:07:40;;;;;;;15.25;13.75;;;7.20;99.90;;;;;;4998642;28;20239;-29
2020/12/11 02:10:11;;;;;;;15.73;14.32;;;7.20;99.90;;;;;;4992140;28;20247;-29
2020/12/11 02:12:41;;;;;;;14.30;12.90;;;7.10;99.90;;;;;;4989814;28;20195;-29
2020/12/11 02:15:11;;;;;;;14.48;13.07;;;7.00;99.90;;;;;;5007713;28;20203;-29
2020/12/11 02:17:41;;;;;;;16.65;15.07;;;7.00;99.90;;;;;;4996309;28;20282;-30
2020/12/11 02:20:12;;;;;;;16.08;14.55;;;7.00;99.90;;;;;;4992577;28;20662;-29
2020/12/11 02:22:44;;;;;;;17.80;16.20;;;7.10;99.90;;;;;;4993079;28;20590;-29
2020/12/11 02:25:14;;;;;;;16.77;15.02;;;7.00;99.90;;;;;;4995658;28;20192;-29
2020/12/11 02:27:48;;;;;;;16.80;15.10;;;7.20;99.90;;;;;;4996346;28;20709;-30
2020/12/11 02:30:18;;;;;;;17.75;16.13;;;7.30;99.90;;;;;;4989023;28;20199;-30
2020/12/11 02:32:48;;;;;;;17.13;15.63;;;7.30;99.90;;;;;;4990211;28;20185;-30
2020/12/11 02:35:19;;;;;;;17.77;16.08;;;7.30;99.90;;;;;;4989837;28;20267;-30
2020/12/11 02:37:51;;;;;;;16.55;15.00;;;7.30;99.90;;;;;;4986898;28;20250;-30
2020/12/11 02:40:21;;;;;;;15.55;14.05;;;7.20;99.90;;;;;;4989299;28;20613;-30
2020/12/11 02:42:51;;;;;;;16.40;14.90;;;7.20;99.90;;;;;;4992275;28;20211;-30
2020/12/11 02:45:21;;;;;;;14.05;12.75;;;7.20;99.90;;;;;;4997077;28;20202;-30
2020/12/11 02:47:51;;;;;;;15.13;13.68;;;7.00;99.90;;;;;;4987010;28;20200;-30
2020/12/11 02:50:21;;;;;;;16.88;15.30;;;6.90;99.90;;;;;;4982682;28;20270;-30
2020/12/11 02:52:52;;;;;;;17.40;15.63;;;6.90;99.90;;;;;;4984529;28;20230;-30
2020/12/11 02:55:22;;;;;;;18.00;16.10;;;7.00;99.90;;;;;;5003070;28;20608;-31
2020/12/11 02:57:52;;;;;;;18.08;16.30;;;7.00;99.90;;;;;;5005605;28;20236;-31
2020/12/11 03:00:22;;;;;;;19.98;17.98;;;7.00;99.90;;;;;;5001576;28;20198;-30
2020/12/11 03:02:52;;;;;;;18.95;17.30;;;7.10;99.90;;;;;;4989735;28;20242;-30
2020/12/11 03:05:23;;;;;;;21.35;19.45;;;7.10;99.90;;;;;;4994906;28;20207;-30
2020/12/11 03:07:54;;;;;;;20.38;18.42;;;7.10;99.90;;;;;;4987184;28;20277;-30
2020/12/11 03:10:24;;;;;;;20.10;18.20;;;7.10;99.90;;;;;;4990161;28;20204;-29
2020/12/11 03:12:54;;;;;;;18.50;16.85;;;7.10;99.90;;;;;;4995897;28;20350;-30
2020/12/11 03:15:24;;;;;;;19.50;17.67;;;7.10;99.90;;;;;;4998530;28;20235;-30
2020/12/11 03:17:55;;;;;;;18.40;16.70;;;7.10;99.90;;;;;;4986550;28;20212;-30
2020/12/11 03:20:25;;;;;;;17.10;15.50;;;7.10;99.90;;;;;;4978216;28;20196;-30
2020/12/11 03:22:57;;;;;;;16.65;15.15;;;7.10;99.90;;;;;;4982128;28;20208;-30
2020/12/11 03:25:28;;;;;;;18.85;17.13;;;7.00;99.90;;;;;;4994941;28;20192;-30
2020/12/11 03:27:59;;;;;;;19.90;17.83;;;6.90;99.90;;;;;;4997133;28;20228;-34
2020/12/11 03:30:29;;;;;;;18.23;16.38;;;6.90;99.90;;;;;;4991205;28;20242;-29
2020/12/11 03:32:59;;;;;;;17.38;15.73;;;6.90;99.90;;;;;;4995998;28;20238;-29
2020/12/11 03:35:29;;;;;;;17.98;16.10;;;7.00;99.90;;;;;;4998671;28;20195;-30
2020/12/11 03:38:00;;;;;;;18.17;16.50;;;7.10;99.90;;;;;;4994897;28;20220;-29
2020/12/11 03:40:30;;;;;;;18.55;16.75;;;7.10;99.90;;;;;;5000324;28;20305;-29
2020/12/11 03:43:00;;;;;;;18.48;16.73;;;7.10;99.90;;;;;;4992977;28;20195;-29
2020/12/11 03:45:30;;;;;;;19.55;17.60;;;7.10;99.90;;;;;;4994045;28;20204;-29
2020/12/11 03:48:00;;;;;;;19.95;17.95;;;7.10;99.90;;;;;;4993453;28;20265;-30
2020/12/11 03:50:30;;;;;;;18.27;16.48;;;7.10;99.90;;;;;;4994187;28;20212;-29
2020/12/11 03:53:02;;;;;;;19.27;17.40;;;7.10;99.90;;;;;;4993408;28;20587;-29
2020/12/11 03:55:33;;;;;;;17.45;15.68;;;7.20;99.90;;;;;;4994195;28;20191;-29
2020/12/11 03:58:03;;;;;;;18.70;17.00;;;7.20;99.90;;;;;;4993753;28;20602;-30
2020/12/11 04:00:33;;;;;;;18.20;16.45;;;7.20;99.90;;;;;;4993985;28;20200;-30
2020/12/11 04:03:03;;;;;;;17.20;15.60;;;7.30;99.90;;;;;;4993499;28;20235;-30
2020/12/11 04:05:33;;;;;;;18.55;16.73;;;7.30;99.90;;;;;;4994014;28;20204;-30
2020/12/11 04:08:05;;;;;;;19.75;17.88;;;7.20;99.90;;;;;;4992858;28;20654;-29
2020/12/11 04:10:35;;;;;;;19.60;17.75;;;7.20;99.90;;;;;;4993473;28;20196;-30
2020/12/11 04:13:04;;;;;;;19.00;17.00;;;7.20;99.90;;;;;;4992920;28;20294;-29
2020/12/11 04:15:34;;;;;;;237.25;52.70;;;7.30;99.90;;;;;;4993384;28;20283;-30
2020/12/11 04:18:04;;;;;;;20.63;18.55;;;7.30;99.90;;;;;;4993261;28;20235;-30
2020/12/11 04:20:35;;;;;;;19.67;17.58;;;7.20;99.90;;;;;;4993712;28;20207;-30
2020/12/11 04:23:06;;;;;;;20.15;18.25;;;7.30;99.90;;;;;;4992653;28;20208;-30
2020/12/11 04:25:36;;;;;;;20.05;17.98;;;7.20;99.90;;;;;;4993428;28;20196;-30
2020/12/11 04:28:06;;;;;;;17.55;15.95;;;7.10;99.90;;;;;;4992965;28;20270;-30
2020/12/11 04:30:36;;;;;;;17.05;15.45;;;7.20;99.90;;;;;;4993387;28;20266;-30
2020/12/11 04:33:06;;;;;;;17.10;15.50;;;7.20;99.90;;;;;;4993672;28;20282;-29
2020/12/11 04:35:36;;;;;;;17.58;15.73;;;7.20;99.90;;;;;;4993245;28;20236;-30
2020/12/11 04:38:07;;;;;;;16.83;15.15;;;7.20;99.90;;;;;;4992484;28;20224;-30
2020/12/11 04:40:37;;;;;;;17.80;16.10;;;7.20;99.90;;;;;;4993182;28;20235;-30
2020/12/11 04:43:11;;;;;;;17.70;15.90;;;7.10;99.90;;;;;;4993260;28;20516;-30
2020/12/11 04:45:42;;;;;;;15.38;13.90;;;7.10;99.90;;;;;;4993412;28;20199;-31
2020/12/11 04:48:12;;;;;;;15.02;13.73;;;7.00;99.90;;;;;;4993185;28;20247;-29
2020/12/11 04:50:42;;;;;;;14.07;12.68;;;7.00;99.90;;;;;;4992812;28;20212;-29
2020/12/11 04:53:17;;;;;;;16.00;14.40;;;6.80;99.90;;;;;;4992249;28;20196;-29
2020/12/11 04:55:50;;;;;;;20.50;17.38;;;6.60;99.90;;;;;;4992569;28;20199;-29
2020/12/11 04:58:21;;;;;;;17.20;15.45;;;6.50;99.90;;;;;;4992470;28;20220;-29
2020/12/11 05:00:55;;;;;;;20.17;18.23;;;6.50;99.90;;;;;;4992657;28;20212;-29
2020/12/11 05:03:25;;;;;;;20.08;18.00;;;6.40;99.90;;;;;;4992513;28;20196;-30
2020/12/11 05:05:56;;;;;;;18.13;15.45;;;6.30;99.90;;;;;;4992629;28;20238;-29
2020/12/11 05:08:27;;;;;;;20.00;18.15;;;6.40;99.90;;;;;;4991984;28;20306;-29
2020/12/11 05:10:57;;;;;;;17.25;15.55;;;6.30;99.90;;;;;;4992547;28;20625;-29
2020/12/11 05:13:27;;;;;;;15.45;13.95;;;6.30;99.90;;;;;;4992316;28;20642;-29
2020/12/11 05:16:11;;;;;;;16.88;15.15;;;6.30;99.90;;;;;;4992355;28;20197;-29
2020/12/11 05:18:42;;;;;;;16.15;14.65;;;6.30;99.90;;;;;;4992166;28;20220;-29
2020/12/11 05:21:19;;;;;;;16.00;14.40;;;6.20;99.90;;;;;;4992367;28;20238;-31
2020/12/11 05:24:06;;;;;;;14.77;13.18;;;6.10;99.90;;;;;;4991657;28;20196;-29
2020/12/11 05:26:37;;;;;;;14.38;12.80;;;6.10;99.90;;;;;;4991677;28;20236;-29
2020/12/11 05:29:07;;;;;;;14.80;13.30;;;6.10;99.90;;;;;;4992143;28;20680;-28
2020/12/11 05:31:37;;;;;;;14.20;12.73;;;6.20;99.90;;;;;;4992146;28;20203;-29
2020/12/11 05:34:13;;;;;;;14.57;13.27;;;6.30;99.90;;;;;;4992374;28;20295;-29
2020/12/11 05:36:48;;;;;;;13.63;12.43;;;6.30;99.90;;;;;;4991866;28;20195;-29
2020/12/11 05:39:34;;;;;;;16.08;14.50;;;6.30;99.90;;;;;;4991853;28;20233;-29
2020/12/11 05:42:11;;;;;;;17.23;15.65;;;6.30;99.90;;;;;;4991327;28;20254;-29
2020/12/11 05:44:41;;;;;;;16.25;14.57;;;6.40;99.90;;;;;;4991918;28;20243;-30
2020/12/11 05:47:22;;;;;;;14.95;13.55;;;6.30;99.90;;;;;;4990991;28;20200;-29
2020/12/11 05:49:52;;;;;;;16.90;15.00;;;6.40;99.90;;;;;;4991800;28;20512;-29
2020/12/11 05:52:23;;;;;;;14.30;12.90;;;6.50;99.90;;;;;;4991267;28;20235;-29
2020/12/11 05:54:55;;;;;;;14.85;13.57;;;6.50;99.90;;;;;;4991383;28;20250;-29
2020/12/11 05:57:26;;;;;;;14.30;12.90;;;6.50;99.90;;;;;;4991317;28;20234;-29
2020/12/11 05:59:57;;;;;;;15.93;14.13;;;6.50;99.90;;;;;;4991336;28;20219;-33
2020/12/11 06:02:30;;;;;;;13.77;12.38;;;6.50;99.90;;;;;;4991233;28;20628;-29
2020/12/11 06:05:02;;;;;;;14.90;13.38;;;6.60;99.90;;;;;;4991341;28;20200;-30
2020/12/11 06:07:35;;;;;;;12.95;11.75;;;6.70;99.90;;;;;;4990402;28;20196;-29
2020/12/11 06:10:06;;;;;;;15.60;11.85;;;6.60;99.90;;;;;;4991246;28;20556;-29
2020/12/11 06:12:36;;;;;;;13.60;12.30;;;6.60;99.90;;;;;;4991256;28;20188;-29
2020/12/11 06:15:10;;;;;;;13.10;11.90;;;6.70;99.90;;;;;;4991185;28;20588;-31
2020/12/11 06:17:46;;;;;;;12.43;11.35;;;6.70;99.90;;;;;;4991033;28;20555;-30
2020/12/11 06:20:18;;;;;;;12.60;11.40;;;6.80;99.90;;;;;;4991549;28;20652;-30
2020/12/11 06:22:48;;;;;;;11.48;10.45;;;6.70;99.90;;;;;;4990510;28;20203;-29
2020/12/11 06:25:32;;;;;;;12.25;11.05;;;6.80;99.90;;;;;;4991442;28;20569;-30
2020/12/11 06:28:02;;;;;;;11.50;10.50;;;6.80;99.90;;;;;;4990793;28;20204;-30
2020/12/11 06:30:34;;;;;;;11.70;10.50;;;6.90;99.90;;;;;;4991241;28;20211;-30
2020/12/11 06:33:04;;;;;;;11.73;10.63;;;6.90;99.90;;;;;;4991057;28;20672;-30
2020/12/11 06:35:34;;;;;;;12.57;11.35;;;7.00;99.90;;;;;;4991168;28;20204;-29
2020/12/11 06:38:04;;;;;;;11.68;10.65;;;7.00;99.90;;;;;;4990304;28;20224;-29
2020/12/11 06:40:51;;;;;;;12.82;11.63;;;6.90;99.90;;;;;;4990740;28;20244;-30
2020/12/11 06:43:41;;;;;;;11.75;10.75;;;6.90;99.90;;;;;;4990606;28;20239;-29
2020/12/11 06:46:16;;;;;;;12.52;11.32;;;6.90;99.90;;;;;;4990833;28;20200;-29
2020/12/11 06:49:08;;;;;;;12.30;11.20;;;6.80;99.90;;;;;;4990638;28;20204;-29
2020/12/11 06:52:11;;;;;;;12.40;11.15;;;6.80;99.90;;;;;;4990828;28;20207;-29
2020/12/11 06:54:54;;;;;;;12.57;11.38;;;6.90;99.90;;;;;;4990680;28;20218;-29
2020/12/11 06:57:45;;;;;;;12.45;11.20;;;6.80;99.90;;;;;;4990436;28;20538;-29
2020/12/11 07:00:38;;;;;;;11.57;10.48;;;6.80;99.90;;;;;;4990533;28;20580;-29
2020/12/11 07:03:28;;;;;;;11.60;10.40;;;6.70;99.90;;;;;;4990376;28;20204;-29
2020/12/11 07:06:09;;;;;;;11.63;10.52;;;6.60;99.90;;;;;;4990355;28;20196;-29
2020/12/11 07:08:39;;;;;;;11.45;10.25;;;6.70;99.90;;;;;;4989893;28;20714;-30
2020/12/11 07:11:12;;;;;;;12.32;11.02;;;6.70;99.90;;;;;;4990550;28;20254;-30
2020/12/11 07:13:51;;;;;;;11.45;9.60;;;6.70;99.90;;;;;;4990401;28;20222;-30
2020/12/11 07:16:21;;;;;;;10.55;9.63;;;6.70;99.90;;;;;;4990251;28;20196;-29
2020/12/11 07:18:52;;;;;;;10.65;9.48;;;6.70;99.90;;;;;;4989987;28;20663;-30
2020/12/11 07:21:29;;;;;;;11.30;8.95;;;6.80;99.90;;;;;;4990337;28;20204;-30
2020/12/11 07:24:00;;;;;;;10.35;9.27;;;6.70;99.90;;;;;;4989444;28;20207;-30
2020/12/11 07:26:30;;;;;;;9.00;8.30;;;6.80;99.90;;;;;;4990247;28;20227;-30
2020/12/11 07:29:06;;;;;;;9.77;7.63;;;6.80;99.90;;;;;;4990018;28;20194;-29
2020/12/11 07:31:39;;;;;;;8.75;7.95;;;6.80;99.90;;;;;;4990597;28;20665;-29
2020/12/11 07:34:17;;;;;;;9.07;8.35;;;6.80;99.90;;;;;;4990663;28;20235;-30
2020/12/11 07:36:48;;;;;;;9.02;8.13;;;6.80;99.90;;;;;;4989469;28;20247;-29
2020/12/11 07:39:19;;;;;;;8.20;7.50;;;6.70;99.90;;;;;;4990076;28;20226;-30
2020/12/11 07:41:51;;;;;;;9.40;8.60;;;6.70;99.90;;;;;;4990161;28;20631;-29
2020/12/11 07:44:24;;;;;;;9.52;8.63;;;6.70;99.90;;;;;;4990496;28;20288;-29
2020/12/11 07:46:55;;;;;;;9.23;8.43;;;6.70;99.90;;;;;;4990189;28;20188;-29
2020/12/11 07:49:35;;;;;;;9.00;8.10;;;6.60;99.90;;;;;;4990166;28;20235;-29
2020/12/11 07:52:06;;;;;;;9.05;8.10;;;6.70;99.90;;;;;;4989525;28;20200;-29
2020/12/11 07:54:36;;;;;;;8.90;8.10;;;6.70;99.90;;;;;;4990404;28;20292;-29
2020/12/11 07:57:11;;;;;;;9.80;9.00;;;6.60;99.90;;;;;;4989816;28;20512;-29
2020/12/11 07:59:42;;;;;;;9.57;8.50;;;6.60;99.90;;;;;;4990260;28;20275;-28
2020/12/11 08:02:15;;;;;;;10.32;8.55;;;6.60;99.90;;;;;;4990264;28;20588;-29
2020/12/11 08:04:45;;;;;;;8.35;7.65;;;6.50;99.90;;;;;;4989972;28;20242;-29
2020/12/11 08:07:24;;;;;;;8.50;7.70;;;6.50;99.90;;;;;;4989266;28;20258;-29
2020/12/11 08:09:55;;;;;;;8.52;7.68;;;6.50;99.90;;;;;;4991659;28;20192;-29
2020/12/11 08:12:25;;;;;;;8.88;7.97;;;6.50;99.90;;;;;;4993806;28;20345;-30
2020/12/11 08:14:56;;;;;;;9.30;8.40;;;6.40;99.90;;;;;;4993784;28;20259;-28
2020/12/11 08:17:27;;;;;;;7.80;7.05;;;6.40;99.90;;;;;;4993592;28;20246;-29
2020/12/11 08:20:01;;;;;;;8.90;8.10;;;6.40;99.90;;;;;;4993411;28;20216;-28
2020/12/11 08:22:33;;;;;;;8.35;7.55;;;6.40;99.90;;;;;;4992863;28;20625;-29
2020/12/11 08:25:18;;;;;;;8.50;7.13;;;6.40;99.90;;;;;;4993624;28;20198;-29
2020/12/11 08:27:48;;;;;;;6.70;6.15;;;6.40;99.90;;;;;;4993354;28;20595;-29
2020/12/11 08:30:22;;;;;;;7.05;6.05;;;6.30;99.90;;;;;;4993564;28;20200;-29
2020/12/11 08:32:52;;;;;;;7.32;6.68;;;6.30;99.90;;;;;;4993254;28;20231;-40
2020/12/11 08:35:23;;;;;;;6.70;6.00;;;6.30;99.90;;;;;;4993185;28;20204;-29
2020/12/11 08:38:05;;;;;;;6.95;6.45;;;6.20;99.90;;;;;;4992512;28;20222;-29
2020/12/11 08:40:47;;;;;;;7.00;6.30;;;6.30;99.90;;;;;;4993384;28;20302;-29
2020/12/11 08:43:27;;;;;;;6.03;5.53;;;6.30;99.90;;;;;;4993124;28;20192;-29
2020/12/11 08:46:10;;;;;;;6.50;5.97;;;6.30;99.90;;;;;;4993131;28;20246;-29
2020/12/11 08:49:05;;;;;;;6.25;5.65;;;6.20;99.90;;;;;;4993057;28;20196;-29
2020/12/11 08:51:35;;;;;;;6.15;5.60;;;6.20;99.90;;;;;;4993272;28;20196;-28
2020/12/11 08:54:08;;;;;;;5.97;5.40;;;6.10;99.90;;;;;;4992484;28;20266;-28
2020/12/11 08:56:45;;;;;;;5.25;4.80;;;6.10;99.90;;;;;;4992863;28;20200;-28
2020/12/11 08:59:16;;;;;;;5.13;4.63;;;6.10;99.90;;;;;;4993208;28;20285;-28
2020/12/11 09:01:51;;;;;;;5.20;4.72;;;6.10;99.90;;;;;;4992668;28;20191;-28
2020/12/11 09:04:22;;;;;;;5.95;5.45;;;6.00;99.90;;;;;;4993000;28;20196;-29
2020/12/11 09:06:52;;;;;;;5.38;4.72;;;5.90;99.90;;;;;;4992264;28;20258;-28
2020/12/11 09:09:22;;;;;;;5.45;4.95;;;5.90;99.90;;;;;;4992933;28;20358;-28
2020/12/11 09:11:52;;;;;;;5.53;4.95;;;6.00;99.90;;;;;;4992831;28;20199;-28
2020/12/11 09:14:22;;;;;;;4.60;4.20;;;5.90;99.90;;;;;;4993005;28;20204;-29
2020/12/11 09:16:53;;;;;;;5.03;4.60;;;6.00;99.90;;;;;;4992381;28;20656;-28
2020/12/11 09:19:25;;;;;;;5.15;4.75;;;6.10;99.90;;;;;;4993023;28;20318;-29
2020/12/11 09:22:00;;;;;;;5.05;4.55;;;6.10;99.90;;;;;;4990906;28;20259;-28
2020/12/11 09:24:30;;;;;;;5.60;4.22;;;6.00;99.90;;;;;;4992711;28;20202;-28
2020/12/11 09:27:00;;;;;;;4.80;4.50;;;6.00;99.90;;;;;;4992171;28;20228;-28
2020/12/11 09:29:33;;;;;;;4.65;4.25;;;6.00;99.90;;;;;;4992476;28;20208;-28
2020/12/11 09:32:06;;;;;;;4.68;4.28;;;5.90;99.90;;;;;;4992181;28;20195;-28
2020/12/11 09:34:36;;;;;;;5.70;5.15;;;6.00;99.90;;;;;;4992504;28;20278;-29
2020/12/11 09:37:06;;;;;;;4.40;4.07;;;6.00;99.90;;;;;;4991573;28;20699;-30
2020/12/11 09:39:36;;;;;;;5.10;4.60;;;6.10;99.90;;;;;;4992338;28;20286;-29
2020/12/11 09:42:16;;;;;;;4.72;4.22;;;6.10;99.90;;;;;;4991943;28;20275;-29
2020/12/11 09:45:06;;;;;;;4.47;4.07;;;6.10;99.90;;;;;;4992190;28;20660;-29
2020/12/11 09:50:36;;;;;;;5.40;4.70;;;6.10;99.90;;;;;;4992080;28;20192;-29
2020/12/11 09:53:15;;;;;;;5.25;4.68;;;6.20;99.90;;;;;;4991301;28;20204;-28
2020/12/11 09:55:49;;;;;;;5.43;4.70;;;6.20;99.90;;;;;;4992066;28;20255;-28
2020/12/11 09:58:19;;;;;;;4.63;4.22;;;6.20;99.90;;;;;;4991720;28;20254;-29
2020/12/11 10:00:52;;;;;;;5.43;4.93;;;6.20;99.90;;;;;;4992061;28;20565;-29
2020/12/11 10:03:29;;;;;;;5.90;5.30;;;6.20;99.90;;;;;;4991641;28;20230;-29
2020/12/11 10:05:59;;;;;;;4.72;4.35;;;6.20;99.90;;;;;;4991745;28;20638;-28
2020/12/11 10:08:29;;;;;;;5.15;4.75;;;6.30;99.90;;;;;;4991197;28;20204;-28
2020/12/11 10:10:59;;;;;;;5.47;4.75;;;6.30;99.90;;;;;;4991366;28;20227;-28
2020/12/11 10:13:29;;;;;;;4.85;4.45;;;6.30;99.90;;;;;;4991760;28;20255;-29
2020/12/11 10:16:00;;;;;;;5.75;4.88;;;6.30;99.90;;;;;;4991505;28;20327;-29
2020/12/11 10:18:32;;;;;;;5.75;5.25;;;6.30;99.90;;;;;;4991473;28;20208;-28
2020/12/11 10:21:02;;;;;;;5.68;5.13;;;6.30;99.90;;;;;;4991472;28;20270;-29
2020/12/11 10:23:32;;;;;;;4.60;4.30;;;6.20;99.90;;;;;;4990773;28;20278;-29
2020/12/11 10:26:03;;;;;;;7.75;4.25;;;6.30;99.90;;;;;;4991258;28;20228;-29
2020/12/11 10:28:34;;;;;;;5.68;5.18;;;6.30;99.90;;;;;;4991336;28;20192;-29
2020/12/11 10:31:04;;;;;;;5.60;5.10;;;6.30;99.90;;;;;;4991416;28;20255;-29
2020/12/11 10:33:35;;;;;;;5.35;4.85;;;6.30;99.90;;;;;;4991027;28;20711;-29
2020/12/11 10:36:05;;;;;;;6.60;5.03;;;6.30;99.90;;;;;;4991335;28;20658;-29
2020/12/11 10:38:35;;;;;;;6.22;4.85;;;6.30;99.90;;;;;;4991271;28;20599;-29
2020/12/11 10:41:05;;;;;;;6.60;4.45;;;6.30;99.90;;;;;;4990888;28;20231;-29
2020/12/11 10:43:35;;;;;;;5.40;4.90;;;6.30;99.90;;;;;;4991047;28;20219;-28
2020/12/11 10:46:06;;;;;;;5.00;4.60;;;6.30;99.90;;;;;;4991496;28;20266;-29
2020/12/11 10:48:37;;;;;;;4.82;4.43;;;6.30;99.90;;;;;;4991000;28;20259;-28
2020/12/11 10:51:10;;;;;;;4.80;4.40;;;6.30;99.90;;;;;;4990866;28;20199;-30
2020/12/11 10:53:41;;;;;;;5.85;5.25;;;6.40;99.90;;;;;;4990399;28;20532;-29
2020/12/11 10:56:12;;;;;;;4.90;4.50;;;6.30;99.90;;;;;;4990905;28;20204;-28
2020/12/11 10:58:43;;;;;;;5.05;4.57;;;6.30;99.90;;;;;;4990359;28;20195;-28
2020/12/11 11:01:13;;;;;;;5.18;4.68;;;6.30;99.90;;;;;;4990957;28;20301;-29
2020/12/11 11:03:45;;;;;;;4.90;4.35;;;6.30;99.90;;;;;;4990471;28;20198;-29
2020/12/11 11:06:21;;;;;;;4.90;4.40;;;6.30;99.90;;;;;;4990608;28;20200;-29
2020/12/11 11:09:01;;;;;;;7.30;4.45;;;6.30;99.90;;;;;;4989864;28;20199;-28
2020/12/11 11:11:35;;;;;;;6.60;4.88;;;6.20;99.90;;;;;;4990623;28;20203;-29
2020/12/11 11:14:18;;;;;;;4.80;4.35;;;6.30;99.90;;;;;;4990450;28;20242;-28
2020/12/11 11:17:15;;;;;;;4.60;4.25;;;6.20;99.90;;;;;;4990116;28;20262;-29
2020/12/11 11:19:52;;;;;;;4.38;3.97;;;6.20;99.90;;;;;;4990360;28;20223;-29
2020/12/11 11:22:35;;;;;;;4.70;3.97;;;6.20;99.90;;;;;;4989688;28;20202;-28
2020/12/11 11:27:59;;;;;;;5.05;4.13;;;6.30;99.90;;;;;;4984517;28;20204;-28
2020/12/11 11:30:29;;;;;;;4.13;3.80;;;6.30;99.90;;;;;;4990340;28;20250;-27
2020/12/11 11:32:59;;;;;;;4.25;3.83;;;6.20;99.90;;;;;;4989988;28;20270;-28
2020/12/11 11:35:31;;;;;;;3.83;3.55;;;6.20;99.90;;;;;;4990152;28;20200;-29
2020/12/11 11:38:06;;;;;;;3.92;3.63;;;6.20;99.90;;;;;;4989389;28;20196;-30
2020/12/11 11:40:38;;;;;;;3.90;3.70;;;6.10;99.90;;;;;;4990301;28;20342;-29
2020/12/11 11:43:08;;;;;;;4.10;3.80;;;6.10;99.90;;;;;;4990247;28;20262;-29
2020/12/11 11:45:39;;;;;;;4.05;3.60;;;6.10;99.90;;;;;;4992868;28;20207;-29
2020/12/11 11:48:11;;;;;;;4.28;3.90;;;6.10;99.90;;;;;;4994007;28;20581;-29
2020/12/11 11:50:49;;;;;;;5.30;3.60;;;6.10;99.90;;;;;;4993873;28;20255;-29
2020/12/11 11:53:21;;;;;;;3.83;3.53;;;6.10;99.90;;;;;;4993722;28;20562;-29
2020/12/11 11:55:51;;;;;;;4.07;3.67;;;6.20;99.90;;;;;;4993723;28;20215;-30
2020/12/11 11:58:21;;;;;;;4.80;4.45;;;6.20;99.90;;;;;;4993920;28;20553;-30
2020/12/11 12:00:52;;;;;;;4.35;4.05;;;6.20;99.90;;;;;;4994010;28;20307;-29
2020/12/11 12:03:24;;;;;;;4.57;4.20;;;6.30;99.90;;;;;;4993739;28;20579;-29
2020/12/11 12:05:55;;;;;;;3.70;3.50;;;6.30;99.90;;;;;;4993836;28;20207;-29
2020/12/11 12:08:25;;;;;;;4.05;3.70;;;6.30;99.90;;;;;;4993149;28;20200;-30
2020/12/11 12:10:56;;;;;;;5.15;3.60;;;6.30;99.90;;;;;;4993721;28;20251;-29
2020/12/11 12:13:26;;;;;;;4.72;4.15;;;6.20;99.90;;;;;;4993432;28;20195;-30
2020/12/11 12:15:57;;;;;;;3.90;3.60;;;6.30;99.90;;;;;;4993511;28;20247;-29
2020/12/11 12:18:27;;;;;;;4.10;3.70;;;6.20;99.90;;;;;;4993740;28;20621;-29
2020/12/11 12:21:02;;;;;;;4.00;3.70;;;6.20;99.90;;;;;;4993652;28;20325;-28
2020/12/11 12:29:14;;;;;;;4.55;4.15;;;6.20;99.90;;;;;;4993468;28;20192;-28
2020/12/11 12:31:48;;;;;;;5.03;4.05;;;6.20;99.90;;;;;;4993209;28;20630;-29
2020/12/11 12:34:41;;;;;;;5.38;4.07;;;6.20;99.90;;;;;;4993497;28;20191;-28
2020/12/11 12:43:16;;;;;;;5.68;5.05;;;6.20;99.90;;;;;;4992903;28;20263;-29
2020/12/11 12:45:46;;;;;;;4.63;4.32;;;6.20;99.90;;;;;;4993117;28;20196;-28
2020/12/11 12:48:16;;;;;;;4.55;4.15;;;6.20;99.90;;;;;;4992937;28;20540;-28
2020/12/11 12:50:46;;;;;;;4.43;4.03;;;6.20;99.90;;;;;;4992979;28;20262;-29
2020/12/11 12:53:17;;;;;;;4.97;4.50;;;6.20;99.90;;;;;;4992243;28;20208;-29
2020/12/11 12:56:31;;;;;;;5.15;4.75;;;6.20;99.90;;;;;;4991696;28;20196;-29
2020/12/11 12:58:41;;;;;;;5.13;4.78;;;6.20;99.90;;;;;;4992691;28;20219;-29
2020/12/11 13:01:16;;;;;;;5.18;4.78;;;6.20;99.90;;;;;;4993414;28;20192;-29
2020/12/11 13:06:33;;;;;;;4.80;4.40;;;6.10;99.90;;;;;;4992867;28;20250;-28
2020/12/11 13:09:05;;;;;;;5.60;5.10;;;6.10;99.90;;;;;;4992041;28;20208;-29
2020/12/11 13:11:35;;;;;;;4.93;4.63;;;6.10;99.90;;;;;;4992672;28;20238;-28
2020/12/11 13:14:06;;;;;;;5.63;5.13;;;6.00;99.90;;;;;;4992499;28;20199;-29
2020/12/11 13:16:36;;;;;;;5.50;5.10;;;6.10;99.90;;;;;;4992764;28;20208;-28
2020/12/11 13:19:07;;;;;;;4.80;4.50;;;6.10;99.90;;;;;;4992472;28;20242;-29
2020/12/11 13:21:41;;;;;;;4.82;4.53;;;6.10;99.90;;;;;;4992575;28;20188;-28
2020/12/11 13:27:05;;;;;;;4.63;4.30;;;6.10;99.90;;;;;;4992089;28;20232;-29
2020/12/11 13:29:35;;;;;;;4.65;4.25;;;6.10;99.90;;;;;;4992524;28;20330;-28
2020/12/11 13:32:05;;;;;;;5.22;4.68;;;6.10;99.90;;;;;;4992139;28;20671;-29
2020/12/11 13:34:35;;;;;;;4.63;4.32;;;6.10;99.90;;;;;;4992954;28;20206;-29
2020/12/11 13:37:05;;;;;;;6.38;4.45;;;6.10;99.90;;;;;;4991300;28;20307;-28